createdAt,value
2019-05-18T00:01:27.336Z,68.40
2019-05-18T00:06:59.049Z,68.41
2019-05-18T00:10:07.924Z,68.24
2019-05-18T00:13:16.672Z,68.59
2019-05-18T00:15:46.099Z,68.24
2019-05-18T00:18:15.760Z,68.31
2019-05-18T00:21:24.743Z,68.06
2019-05-18T00:26:55.976Z,68.40
2019-05-18T00:30:04.615Z,68.34
2019-05-18T00:33:13.507Z,68.15
2019-05-18T00:38:57.408Z,68.71
2019-05-18T00:42:06.033Z,68.65
2019-05-18T00:44:36.704Z,69.58
2019-05-18T00:47:40.334Z,68.99
2019-05-18T00:49:58.244Z,68.68
2019-05-18T00:55:42.516Z,68.99
2019-05-18T00:58:12.239Z,68.63
2019-05-18T01:01:21.312Z,68.75
2019-05-18T01:03:51.127Z,69.01
2019-05-18T01:06:20.511Z,69.04
2019-05-18T01:08:49.974Z,68.93
2019-05-18T01:14:28.531Z,69.16
2019-05-18T01:20:46.514Z,68.99
2019-05-18T01:23:16.638Z,68.73
2019-05-18T01:25:46.282Z,68.98
2019-05-18T01:31:11.744Z,69.46
2019-05-18T01:33:41.111Z,69.34
2019-05-18T01:36:10.757Z,69.25
2019-05-18T01:38:40.389Z,69.14
2019-05-18T01:41:09.781Z,69.02
2019-05-18T01:43:39.126Z,69.21
2019-05-18T01:46:48.281Z,69.05
2019-05-18T01:49:18.140Z,69.16
2019-05-18T01:51:47.646Z,69.00
2019-05-18T01:54:56.556Z,69.18
2019-05-18T02:00:16.217Z,69.74
2019-05-18T02:03:05.559Z,70.28
2019-05-18T02:05:35.139Z,69.82
2019-05-18T02:08:04.677Z,69.67
2019-05-18T02:10:34.301Z,69.62
2019-05-18T02:15:59.307Z,69.99
2019-05-18T02:18:29.466Z,70.16
2019-05-18T02:21:00.578Z,70.14
2019-05-18T02:23:30.079Z,70.10
2019-05-18T02:25:59.570Z,69.91
2019-05-18T02:28:29.193Z,69.82
2019-05-18T02:30:58.721Z,69.91
2019-05-18T02:33:28.229Z,69.90
2019-05-18T02:35:57.618Z,69.87
2019-05-18T02:39:06.426Z,69.63
2019-05-18T02:44:31.038Z,69.71
2019-05-18T02:50:48.534Z,69.55
2019-05-18T02:56:00.416Z,69.16
2019-05-18T03:01:38.817Z,69.64
2019-05-18T03:07:23.849Z,69.80
2019-05-18T03:09:53.253Z,69.69
2019-05-18T03:15:19.205Z,69.40
2019-05-18T03:20:57.953Z,69.71
2019-05-18T03:23:27.331Z,69.01
2019-05-18T03:26:15.872Z,68.16
2019-05-18T03:31:59.871Z,67.92
2019-05-18T03:37:38.377Z,68.04
2019-05-18T03:43:22.082Z,66.88
2019-05-18T03:45:51.621Z,66.90
2019-05-18T03:48:21.032Z,66.40
2019-05-18T03:50:50.528Z,65.98
2019-05-18T03:59:05.605Z,65.49
2019-05-18T04:01:34.990Z,65.34
2019-05-18T04:04:04.371Z,64.90
2019-05-18T04:06:33.792Z,64.50
2019-05-18T04:12:17.357Z,64.22
2019-05-18T04:15:26.087Z,64.11
2019-05-18T04:17:56.134Z,63.94
2019-05-18T04:20:25.458Z,63.61
2019-05-18T04:25:51.262Z,62.95
2019-05-18T04:28:20.771Z,62.87
2019-05-18T04:30:50.192Z,62.65
2019-05-18T04:33:19.641Z,62.32
2019-05-18T04:35:49.363Z,61.90
2019-05-18T04:38:20.576Z,61.67
2019-05-18T04:41:29.280Z,61.20
2019-05-18T04:43:59.039Z,60.66
2019-05-18T04:46:28.736Z,60.17
2019-05-18T04:51:54.429Z,52.62
2019-05-18T04:54:23.808Z,44.04
2019-05-18T04:56:53.169Z,38.54
2019-05-18T04:59:22.632Z,38.24
2019-05-18T05:04:41.179Z,40.50
2019-05-18T05:07:30.315Z,44.42
2019-05-18T05:09:59.926Z,47.61
2019-05-18T05:12:29.403Z,47.60
2019-05-18T05:17:54.496Z,47.87
2019-05-18T05:23:39.492Z,48.82
2019-05-18T05:26:21.762Z,49.60
2019-05-18T05:28:51.229Z,49.42
2019-05-18T05:31:20.629Z,49.35
2019-05-18T05:33:49.993Z,48.77
2019-05-18T05:36:58.885Z,47.76
2019-05-18T05:39:28.307Z,48.61
2019-05-18T05:42:16.603Z,48.26
2019-05-18T05:44:46.010Z,48.20
2019-05-18T05:47:15.452Z,47.84
2019-05-18T05:49:44.824Z,47.87
2019-05-18T05:52:14.725Z,46.96
2019-05-18T05:54:44.214Z,47.02
2019-05-18T05:57:13.616Z,47.12
2019-05-18T05:59:42.996Z,47.21
2019-05-18T06:02:12.616Z,47.09
2019-05-18T06:04:42.021Z,46.77
2019-05-18T06:07:11.588Z,46.55
2019-05-18T06:09:41.089Z,45.73
2019-05-18T06:12:10.471Z,45.29
2019-05-18T06:17:54.555Z,44.85
2019-05-18T06:20:24.226Z,45.01
2019-05-18T06:22:53.676Z,45.36
2019-05-18T06:28:18.441Z,44.77
2019-05-18T06:33:49.784Z,42.82
2019-05-18T06:36:20.653Z,42.57
2019-05-18T06:38:50.358Z,42.08
2019-05-18T06:41:59.356Z,41.14
2019-05-18T06:44:28.865Z,41.58
2019-05-18T06:47:37.895Z,40.32
2019-05-18T06:53:23.445Z,39.57
2019-05-18T07:02:08.433Z,37.98
2019-05-18T07:04:38.297Z,38.05
2019-05-18T07:07:08.588Z,36.19
2019-05-18T07:10:17.321Z,36.56
2019-05-18T07:12:49.316Z,35.22
2019-05-18T07:15:57.977Z,35.21
2019-05-18T07:21:23.752Z,32.88
2019-05-18T07:23:53.116Z,33.85
2019-05-18T07:27:02.023Z,34.35
2019-05-18T07:29:31.423Z,34.76
2019-05-18T07:32:00.932Z,32.35
2019-05-18T07:37:45.653Z,32.58
2019-05-18T07:43:23.778Z,33.13
2019-05-18T07:49:08.049Z,32.81
2019-05-18T07:51:37.829Z,32.88
2019-05-18T07:56:55.528Z,34.08
2019-05-18T07:59:25.239Z,30.32
2019-05-18T08:01:54.620Z,29.67
2019-05-18T08:05:03.357Z,31.38
2019-05-18T08:07:33.205Z,30.64
2019-05-18T08:10:02.582Z,28.91
2019-05-18T08:12:31.957Z,29.79
2019-05-18T08:15:01.616Z,28.82
2019-05-18T08:17:31.440Z,30.25
2019-05-18T08:20:00.911Z,27.64
2019-05-18T08:22:30.281Z,28.44
2019-05-18T08:24:59.644Z,28.74
2019-05-18T08:27:29.144Z,27.42
2019-05-18T08:29:58.663Z,27.70
2019-05-18T08:32:28.475Z,30.17
2019-05-18T08:34:57.866Z,27.21
2019-05-18T08:37:27.274Z,26.15
2019-05-18T08:39:57.009Z,26.23
2019-05-18T08:42:45.403Z,26.26
2019-05-18T08:48:30.203Z,25.97
2019-05-18T08:50:59.688Z,25.92
2019-05-18T08:54:08.489Z,25.47
2019-05-18T08:56:38.531Z,25.72
2019-05-18T08:59:07.944Z,24.21
2019-05-18T09:01:37.416Z,25.39
2019-05-18T09:04:06.886Z,25.33
2019-05-18T09:06:36.353Z,25.32
2019-05-18T09:09:06.949Z,25.70
2019-05-18T09:11:36.437Z,25.09
2019-05-18T09:14:06.038Z,25.87
2019-05-18T09:16:35.737Z,25.52
2019-05-18T09:19:05.123Z,25.13
2019-05-18T09:21:34.643Z,25.46
2019-05-18T09:24:04.216Z,25.59
2019-05-18T09:26:33.816Z,26.15
2019-05-18T09:29:03.232Z,25.67
2019-05-18T09:31:33.345Z,25.46
2019-05-18T09:34:03.385Z,25.71
2019-05-18T09:36:52.061Z,26.05
2019-05-18T09:39:21.823Z,25.35
2019-05-18T09:41:51.448Z,25.67
2019-05-18T09:44:20.869Z,25.11
2019-05-18T09:46:50.357Z,25.21
2019-05-18T09:49:19.748Z,25.80
2019-05-18T09:51:49.117Z,25.95
2019-05-18T09:54:18.532Z,26.26
2019-05-18T09:56:50.963Z,26.04
2019-05-18T09:59:20.492Z,25.70
2019-05-18T10:02:29.405Z,25.93
2019-05-18T10:04:58.956Z,25.75
2019-05-18T10:07:28.305Z,26.15
2019-05-18T10:09:58.244Z,25.76
2019-05-18T10:13:07.160Z,26.07
2019-05-18T10:15:36.557Z,26.77
2019-05-18T10:18:45.409Z,26.03
2019-05-18T10:21:15.839Z,26.17
2019-05-18T10:23:45.244Z,26.67
2019-05-18T10:26:14.661Z,26.76
2019-05-18T10:28:44.031Z,26.93
2019-05-18T10:31:13.415Z,26.74
2019-05-18T10:33:43.831Z,26.79
2019-05-18T10:36:13.317Z,27.29
2019-05-18T10:38:42.661Z,27.37
2019-05-18T10:43:52.575Z,27.42
2019-05-18T10:46:21.972Z,27.75
2019-05-18T10:48:51.417Z,27.76
2019-05-18T10:51:20.796Z,27.41
2019-05-18T10:56:59.522Z,28.15
2019-05-18T10:59:28.941Z,27.87
2019-05-18T11:01:58.350Z,27.95
2019-05-18T11:04:28.048Z,27.65
2019-05-18T11:06:57.543Z,27.51
2019-05-18T11:09:26.918Z,27.57
2019-05-18T11:11:56.373Z,27.75
2019-05-18T11:14:25.788Z,28.24
2019-05-18T11:16:55.275Z,26.70
2019-05-18T11:19:24.691Z,27.28
2019-05-18T11:21:54.548Z,27.62
2019-05-18T11:24:24.112Z,26.31
2019-05-18T11:26:53.651Z,26.54
2019-05-18T11:29:24.111Z,27.03
2019-05-18T11:31:54.098Z,26.52
2019-05-18T11:34:23.646Z,26.50
2019-05-18T11:36:53.382Z,26.40
2019-05-18T11:39:22.814Z,26.85
2019-05-18T11:41:52.163Z,25.92
2019-05-18T11:45:00.866Z,26.44
2019-05-18T11:47:32.154Z,26.10
2019-05-18T11:50:01.728Z,26.39
2019-05-18T11:52:31.227Z,26.14
2019-05-18T11:55:00.591Z,26.19
2019-05-18T11:57:29.973Z,26.25
2019-05-18T11:59:59.851Z,27.17
2019-05-18T12:02:29.293Z,26.06
2019-05-18T12:04:59.024Z,26.44
2019-05-18T12:07:28.457Z,26.01
2019-05-18T12:09:57.864Z,25.71
2019-05-18T12:12:27.259Z,25.74
2019-05-18T12:14:56.906Z,26.36
2019-05-18T12:17:26.378Z,26.40
2019-05-18T12:19:55.822Z,26.49
2019-05-18T12:25:21.613Z,26.69
2019-05-18T12:31:02.143Z,26.10
2019-05-18T12:33:31.898Z,25.75
2019-05-18T12:36:01.812Z,26.21
2019-05-18T12:38:31.741Z,26.04
2019-05-18T12:41:41.081Z,25.85
2019-05-18T12:44:12.507Z,25.91
2019-05-18T12:49:51.167Z,25.23
2019-05-18T12:52:21.650Z,25.38
2019-05-18T12:54:51.127Z,24.99
2019-05-18T13:00:55.599Z,24.09
2019-05-18T13:03:25.145Z,24.63
2019-05-18T13:08:50.640Z,24.58
2019-05-18T13:11:20.250Z,23.91
2019-05-18T13:14:28.933Z,23.01
2019-05-18T13:19:37.671Z,20.41
2019-05-18T13:22:07.429Z,20.16
2019-05-18T13:24:55.922Z,19.62
2019-05-18T13:30:28.065Z,20.45
2019-05-18T13:33:16.508Z,21.04
2019-05-18T13:35:57.402Z,22.92
2019-05-18T13:38:26.952Z,22.92
2019-05-18T13:41:15.831Z,23.92
2019-05-18T13:44:05.065Z,23.41
2019-05-18T13:47:13.953Z,23.41
2019-05-18T13:52:39.074Z,23.81
2019-05-18T13:55:47.888Z,23.79
2019-05-18T13:58:56.758Z,23.60
2019-05-18T14:01:40.806Z,23.74
2019-05-18T14:04:10.653Z,23.40
2019-05-18T14:09:50.225Z,22.93
2019-05-18T14:12:20.237Z,22.44
2019-05-18T14:14:49.711Z,22.25
2019-05-18T14:17:19.799Z,21.69
2019-05-18T14:20:28.513Z,20.68
2019-05-18T14:25:54.143Z,19.45
2019-05-18T14:31:32.864Z,17.80
2019-05-18T14:34:02.372Z,17.53
2019-05-18T14:39:27.198Z,17.35
2019-05-18T14:45:44.562Z,17.67
2019-05-18T14:48:14.004Z,17.64
2019-05-18T14:50:43.457Z,17.93
2019-05-18T14:53:12.936Z,17.91
2019-05-18T14:55:42.385Z,18.16
2019-05-18T14:58:11.874Z,17.92
2019-05-18T15:00:41.262Z,17.26
2019-05-18T15:07:00.295Z,17.69
2019-05-18T15:12:25.253Z,17.91
2019-05-18T15:14:55.032Z,17.89
2019-05-18T15:17:24.621Z,17.78
2019-05-18T15:19:54.198Z,17.83
2019-05-18T15:25:48.168Z,18.25
2019-05-18T15:31:19.604Z,19.61
2019-05-18T15:34:29.871Z,21.14
2019-05-18T15:36:59.353Z,21.50
2019-05-18T15:39:28.876Z,22.89
2019-05-18T15:42:37.734Z,22.99
2019-05-18T15:48:22.327Z,23.55
2019-05-18T15:50:52.308Z,22.92
2019-05-18T15:53:22.151Z,23.67
2019-05-18T15:56:04.865Z,23.91
2019-05-18T15:58:22.980Z,23.82
2019-05-18T16:01:31.657Z,23.82
2019-05-18T16:07:10.765Z,23.32
2019-05-18T16:09:40.441Z,23.75
2019-05-18T16:12:09.899Z,24.05
2019-05-18T16:17:38.814Z,25.06
2019-05-18T16:20:00.067Z,25.27
2019-05-18T16:25:39.256Z,25.49
2019-05-18T16:28:08.824Z,25.51
2019-05-18T16:31:17.711Z,25.53
2019-05-18T16:33:47.207Z,25.62
2019-05-18T16:36:16.860Z,25.80
2019-05-18T16:38:46.539Z,25.70
2019-05-18T16:44:25.276Z,25.88
2019-05-18T16:50:04.578Z,26.45
2019-05-18T16:53:13.887Z,26.59
2019-05-18T16:56:34.528Z,26.43
2019-05-18T16:58:56.211Z,26.82
2019-05-18T17:01:25.707Z,27.17
2019-05-18T17:06:51.457Z,26.85
2019-05-18T17:12:32.549Z,27.14
2019-05-18T17:15:01.982Z,27.43
2019-05-18T17:17:35.254Z,27.40
2019-05-18T17:20:03.494Z,27.51
2019-05-18T17:22:32.832Z,27.70
2019-05-18T17:25:02.219Z,27.66
2019-05-18T17:27:31.744Z,27.87
2019-05-18T17:30:01.414Z,27.84
2019-05-18T17:32:30.855Z,28.10
2019-05-18T17:35:39.744Z,28.04
2019-05-18T17:41:23.814Z,28.07
2019-05-18T17:44:33.129Z,28.49
2019-05-18T17:47:02.703Z,28.66
2019-05-18T17:49:51.376Z,28.67
2019-05-18T17:52:20.815Z,28.62
2019-05-18T17:57:58.915Z,29.16
2019-05-18T18:01:07.998Z,28.74
2019-05-18T18:04:16.773Z,29.10
2019-05-18T18:06:46.168Z,29.31
2019-05-18T18:09:15.569Z,29.56
2019-05-18T18:11:45.163Z,29.50
2019-05-18T18:14:15.177Z,29.83
2019-05-18T18:17:23.862Z,29.67
2019-05-18T18:20:00.298Z,29.88
2019-05-18T18:22:36.108Z,29.97
2019-05-18T18:25:45.215Z,30.53
2019-05-18T18:28:25.902Z,30.32
2019-05-18T18:30:55.558Z,30.62
2019-05-18T18:33:24.987Z,30.75
2019-05-18T18:36:35.597Z,31.59
2019-05-18T18:45:26.915Z,31.60
2019-05-18T18:47:56.496Z,31.80
2019-05-18T18:50:25.947Z,31.96
2019-05-18T18:52:55.826Z,32.05
2019-05-18T18:56:04.577Z,32.42
2019-05-18T18:58:34.186Z,32.56
2019-05-18T19:01:03.680Z,33.06
2019-05-18T19:07:09.214Z,33.57
2019-05-18T19:09:40.028Z,33.84
2019-05-18T19:12:09.448Z,34.51
2019-05-18T19:14:39.126Z,34.84
2019-05-18T19:17:08.622Z,34.89
2019-05-18T19:20:17.698Z,34.78
2019-05-18T19:25:48.809Z,35.24
2019-05-18T19:28:29.881Z,35.50
2019-05-18T19:30:59.432Z,35.82
2019-05-18T19:36:44.532Z,36.02
2019-05-18T19:39:14.347Z,36.35
2019-05-18T19:41:44.172Z,36.93
2019-05-18T19:44:13.667Z,37.29
2019-05-18T19:46:43.140Z,37.65
2019-05-18T19:55:03.786Z,38.11
2019-05-18T19:57:34.542Z,38.20
2019-05-18T20:00:05.037Z,38.93
2019-05-18T20:02:34.663Z,39.36
2019-05-18T20:08:14.349Z,40.58
2019-05-18T20:10:44.081Z,40.85
2019-05-18T20:13:13.730Z,41.24
2019-05-18T20:15:43.339Z,41.27
2019-05-18T20:21:22.400Z,41.68
2019-05-18T20:24:11.091Z,41.88
2019-05-18T20:26:40.972Z,41.87
2019-05-18T20:29:10.476Z,42.35
2019-05-18T20:31:39.873Z,42.60
2019-05-18T20:34:48.560Z,42.73
2019-05-18T20:37:18.008Z,43.53
2019-05-18T20:42:42.991Z,43.47
2019-05-18T20:48:27.210Z,44.26
2019-05-18T20:57:01.118Z,45.97
2019-05-18T20:59:30.580Z,46.29
2019-05-18T21:02:00.388Z,46.73
2019-05-18T21:05:09.531Z,47.27
2019-05-18T21:10:41.198Z,47.97
2019-05-18T21:16:19.339Z,48.46
2019-05-18T21:21:58.733Z,48.36
2019-05-18T21:24:28.398Z,49.14
2019-05-18T21:27:38.284Z,49.42
2019-05-18T21:33:09.676Z,50.11
2019-05-18T21:36:18.607Z,50.20
2019-05-18T21:41:44.396Z,49.99
2019-05-18T21:47:15.663Z,50.73
2019-05-18T21:50:04.539Z,51.02
2019-05-18T21:53:13.202Z,51.12
2019-05-18T21:55:43.483Z,51.37
2019-05-18T21:58:13.210Z,51.99
2019-05-18T22:03:48.867Z,52.77
2019-05-18T22:09:33.273Z,52.89
2019-05-18T22:12:02.653Z,53.09
2019-05-18T22:14:32.912Z,53.53
2019-05-18T22:17:02.885Z,54.02
2019-05-18T22:19:32.888Z,53.73
2019-05-18T22:22:14.073Z,54.23
2019-05-18T22:24:44.272Z,54.36
2019-05-18T22:27:13.726Z,54.93
2019-05-18T22:29:43.215Z,55.37
2019-05-18T22:32:52.222Z,57.00
2019-05-18T22:36:01.099Z,55.85
2019-05-18T22:38:32.548Z,56.04
2019-05-18T22:41:02.447Z,56.36
2019-05-18T22:44:11.179Z,56.71
2019-05-18T22:49:43.630Z,56.66
2019-05-18T22:52:24.583Z,56.63
2019-05-18T22:57:49.801Z,57.13
2019-05-18T23:00:58.515Z,57.49
2019-05-18T23:04:07.237Z,57.50
2019-05-18T23:09:32.769Z,58.52
2019-05-18T23:12:02.761Z,59.00
2019-05-18T23:14:32.194Z,58.85
2019-05-18T23:17:02.041Z,59.04
2019-05-18T23:19:31.468Z,59.14
2019-05-18T23:22:40.217Z,59.82
2019-05-18T23:28:19.497Z,59.41
2019-05-18T23:31:28.150Z,59.14
2019-05-18T23:33:57.551Z,59.59
2019-05-18T23:36:27.132Z,60.23
2019-05-18T23:41:53.079Z,60.06
2019-05-18T23:47:31.135Z,61.07
2019-05-18T23:50:00.601Z,60.89
2019-05-18T23:52:41.541Z,61.04
2019-05-18T23:58:20.749Z,60.97
